createdAt,value
2019-05-17T00:01:26.989Z,18.63
2019-05-17T00:03:57.660Z,17.40
2019-05-17T00:06:28.916Z,18.50
2019-05-17T00:09:00.161Z,17.80
2019-05-17T00:11:31.282Z,16.93
2019-05-17T00:14:02.625Z,18.73
2019-05-17T00:16:33.905Z,17.80
2019-05-17T00:19:07.312Z,16.43
2019-05-17T00:21:38.369Z,15.70
2019-05-17T00:24:09.581Z,16.50
2019-05-17T00:26:40.919Z,16.63
2019-05-17T00:29:12.212Z,15.77
2019-05-17T00:31:43.547Z,16.43
2019-05-17T00:34:16.609Z,17.70
2019-05-17T00:36:47.829Z,16.63
2019-05-17T00:39:19.314Z,15.60
2019-05-17T00:41:50.581Z,18.33
2019-05-17T00:44:21.854Z,16.17
2019-05-17T00:46:53.078Z,15.97
2019-05-17T00:49:26.429Z,17.90
2019-05-17T00:51:58.030Z,17.57
2019-05-17T00:54:29.283Z,17.20
2019-05-17T00:57:00.582Z,16.47
2019-05-17T00:59:31.765Z,15.47
2019-05-17T01:02:03.045Z,16.93
2019-05-17T01:04:36.832Z,16.03
2019-05-17T01:07:08.321Z,12.30
2019-05-17T01:09:39.517Z,14.47
2019-05-17T01:12:10.687Z,13.43
2019-05-17T01:14:41.974Z,12.53
2019-05-17T01:17:13.277Z,9.07
2019-05-17T01:19:47.016Z,8.83
2019-05-17T01:22:17.851Z,8.03
2019-05-17T01:24:49.070Z,7.67
2019-05-17T01:27:21.006Z,7.53
2019-05-17T01:29:52.249Z,6.57
2019-05-17T01:32:23.385Z,6.50
2019-05-17T01:34:56.492Z,6.07
2019-05-17T01:37:27.876Z,6.77
2019-05-17T01:39:59.554Z,5.37
2019-05-17T01:42:31.285Z,5.60
2019-05-17T01:45:02.636Z,5.60
2019-05-17T01:47:34.103Z,6.03
2019-05-17T01:50:07.906Z,6.87
2019-05-17T01:52:39.171Z,6.07
2019-05-17T01:55:11.695Z,5.57
2019-05-17T01:57:43.279Z,6.60
2019-05-17T02:00:17.609Z,5.20
2019-05-17T02:02:50.278Z,4.83
2019-05-17T02:05:21.833Z,4.47
2019-05-17T02:07:53.473Z,5.00
2019-05-17T02:10:27.167Z,5.07
2019-05-17T02:12:58.813Z,5.27
2019-05-17T02:15:30.229Z,5.53
2019-05-17T02:18:01.412Z,5.97
2019-05-17T02:20:32.602Z,4.30
2019-05-17T02:23:03.802Z,4.97
2019-05-17T02:25:36.985Z,6.77
2019-05-17T02:28:08.405Z,4.87
2019-05-17T02:30:39.839Z,5.30
2019-05-17T02:33:12.612Z,5.00
2019-05-17T02:35:45.131Z,6.10
2019-05-17T02:38:16.677Z,4.97
2019-05-17T02:40:47.865Z,5.70
2019-05-17T02:43:19.185Z,5.10
2019-05-17T02:45:52.835Z,5.37
2019-05-17T02:48:23.587Z,4.80
2019-05-17T02:50:54.718Z,5.80
2019-05-17T02:53:25.844Z,5.33
2019-05-17T02:55:57.610Z,5.27
2019-05-17T02:58:29.469Z,5.63
2019-05-17T03:01:03.659Z,6.07
2019-05-17T03:03:33.909Z,5.17
2019-05-17T03:06:05.147Z,5.60
2019-05-17T03:08:36.489Z,5.07
2019-05-17T03:11:07.843Z,5.07
2019-05-17T03:13:38.974Z,4.53
2019-05-17T03:16:14.564Z,5.07
2019-05-17T03:18:44.197Z,5.43
2019-05-17T03:21:15.459Z,5.20
2019-05-17T03:23:46.961Z,6.50
2019-05-17T03:26:18.224Z,5.67
2019-05-17T03:28:49.605Z,7.93
2019-05-17T03:31:26.072Z,7.70
2019-05-17T03:33:56.063Z,7.67
2019-05-17T03:36:27.544Z,5.90
2019-05-17T03:38:58.891Z,6.40
2019-05-17T03:41:33.762Z,5.80
2019-05-17T03:44:03.551Z,6.60
2019-05-17T03:46:35.136Z,6.23
2019-05-17T03:49:06.663Z,7.07
2019-05-17T03:51:38.023Z,6.10
2019-05-17T03:54:09.262Z,7.00
2019-05-17T03:56:42.765Z,6.70
2019-05-17T03:59:13.433Z,6.07
2019-05-17T04:01:44.742Z,6.80
2019-05-17T04:04:16.432Z,6.23
2019-05-17T04:06:47.580Z,5.53
2019-05-17T04:09:18.777Z,5.30
2019-05-17T04:11:53.236Z,7.93
2019-05-17T04:14:23.099Z,6.87
2019-05-17T04:16:54.635Z,9.37
2019-05-17T04:19:25.817Z,5.80
2019-05-17T04:21:57.548Z,6.13
2019-05-17T04:24:28.913Z,7.10
2019-05-17T04:27:03.424Z,6.63
2019-05-17T04:29:33.650Z,6.80
2019-05-17T04:32:05.030Z,5.40
2019-05-17T04:34:36.295Z,5.17
2019-05-17T04:37:07.486Z,4.90
2019-05-17T04:39:38.755Z,5.03
2019-05-17T04:42:13.356Z,5.30
2019-05-17T04:44:43.274Z,5.30
2019-05-17T04:47:15.219Z,5.77
2019-05-17T04:49:47.091Z,5.10
2019-05-17T04:52:18.623Z,5.07
2019-05-17T04:54:53.412Z,4.67
2019-05-17T04:57:23.269Z,4.70
2019-05-17T04:59:55.137Z,4.53
2019-05-17T05:02:26.398Z,4.27
2019-05-17T05:04:57.752Z,4.27
2019-05-17T05:07:29.780Z,4.77
2019-05-17T05:10:03.071Z,4.10
2019-05-17T05:12:33.980Z,4.23
2019-05-17T05:15:05.449Z,4.60
2019-05-17T05:17:36.532Z,3.50
2019-05-17T05:20:08.456Z,3.60
2019-05-17T05:22:42.427Z,3.90
2019-05-17T05:25:13.197Z,3.97
2019-05-17T05:27:44.817Z,3.77
2019-05-17T05:30:16.554Z,3.33
2019-05-17T05:32:48.048Z,3.17
2019-05-17T05:35:19.394Z,3.47
2019-05-17T05:37:52.583Z,3.07
2019-05-17T05:40:24.038Z,3.27
2019-05-17T05:42:55.292Z,2.97
2019-05-17T05:45:27.012Z,5.87
2019-05-17T05:47:58.202Z,3.87
2019-05-17T05:50:32.184Z,3.53
2019-05-17T05:53:02.834Z,2.70
2019-05-17T05:55:34.106Z,3.03
2019-05-17T05:58:05.384Z,3.83
2019-05-17T06:00:36.642Z,7.03
2019-05-17T06:03:08.302Z,3.13
2019-05-17T06:05:41.960Z,2.80
2019-05-17T06:08:12.663Z,3.17
2019-05-17T06:10:44.190Z,2.80
2019-05-17T06:13:15.462Z,12.60
2019-05-17T06:15:47.187Z,4.60
2019-05-17T06:18:18.457Z,4.30
2019-05-17T06:20:52.219Z,3.07
2019-05-17T06:23:23.587Z,2.37
2019-05-17T06:25:54.883Z,2.73
2019-05-17T06:28:26.046Z,3.13
2019-05-17T06:30:57.248Z,3.00
2019-05-17T06:33:33.799Z,4.60
2019-05-17T06:36:02.790Z,8.43
2019-05-17T06:38:34.408Z,4.33
2019-05-17T06:41:05.659Z,5.87
2019-05-17T06:43:38.559Z,4.93
2019-05-17T06:46:12.424Z,4.03
2019-05-17T06:48:43.329Z,2.80
2019-05-17T06:51:14.642Z,2.50
2019-05-17T06:53:46.078Z,3.30
2019-05-17T06:56:17.312Z,6.30
2019-05-17T06:58:48.653Z,8.17
2019-05-17T07:01:19.973Z,5.80
2019-05-17T07:03:51.215Z,3.03
2019-05-17T07:06:24.181Z,3.30
2019-05-17T07:08:55.392Z,7.17
2019-05-17T07:11:27.467Z,2.20
2019-05-17T07:13:59.741Z,2.57
2019-05-17T07:16:31.259Z,2.07
2019-05-17T07:19:02.902Z,3.03
2019-05-17T07:21:34.210Z,4.70
2019-05-17T07:24:05.515Z,2.60
2019-05-17T07:26:39.306Z,2.67
2019-05-17T07:29:10.327Z,2.93
2019-05-17T07:31:41.504Z,2.30
2019-05-17T07:34:13.029Z,2.40
2019-05-17T07:36:44.527Z,2.37
2019-05-17T07:39:16.061Z,2.57
2019-05-17T07:41:49.328Z,2.50
2019-05-17T07:44:20.574Z,2.30
2019-05-17T07:46:51.977Z,2.17
2019-05-17T07:49:23.865Z,2.23
2019-05-17T07:51:55.081Z,1.83
2019-05-17T07:54:26.390Z,2.53
2019-05-17T07:57:00.255Z,2.77
2019-05-17T07:59:30.720Z,3.07
2019-05-17T08:02:01.890Z,2.10
2019-05-17T08:04:33.608Z,2.13
2019-05-17T08:07:04.923Z,1.90
2019-05-17T08:09:36.532Z,2.10
2019-05-17T08:12:10.852Z,2.20
2019-05-17T08:14:40.694Z,1.57
2019-05-17T08:17:12.021Z,2.10
2019-05-17T08:19:43.457Z,1.73
2019-05-17T08:22:15.009Z,2.03
2019-05-17T08:24:46.243Z,2.00
2019-05-17T08:27:19.941Z,1.70
2019-05-17T08:29:50.815Z,1.90
2019-05-17T08:32:21.956Z,6.67
2019-05-17T08:34:53.224Z,2.80
2019-05-17T08:37:24.542Z,2.00
2019-05-17T08:39:56.194Z,2.03
2019-05-17T08:42:29.824Z,2.37
2019-05-17T08:45:00.784Z,1.87
2019-05-17T08:47:32.391Z,2.20
2019-05-17T08:50:04.374Z,1.87
2019-05-17T08:52:35.585Z,1.60
2019-05-17T08:55:09.478Z,2.13
2019-05-17T08:57:40.465Z,1.60
2019-05-17T09:00:12.443Z,1.97
2019-05-17T09:02:43.823Z,2.53
2019-05-17T09:05:15.125Z,2.40
2019-05-17T09:07:46.329Z,2.20
2019-05-17T09:10:20.521Z,1.43
2019-05-17T09:12:50.694Z,1.60
2019-05-17T09:15:22.278Z,1.27
2019-05-17T09:17:53.559Z,1.63
2019-05-17T09:20:25.263Z,1.40
2019-05-17T09:22:56.433Z,1.53
2019-05-17T09:25:30.101Z,1.90
2019-05-17T09:28:00.842Z,1.90
2019-05-17T09:30:32.161Z,1.60
2019-05-17T09:33:03.877Z,2.90
2019-05-17T09:35:35.134Z,1.73
2019-05-17T09:38:06.408Z,1.57
2019-05-17T09:40:39.884Z,2.53
2019-05-17T09:43:10.675Z,2.80
2019-05-17T09:45:41.896Z,1.53
2019-05-17T09:48:13.129Z,2.00
2019-05-17T09:50:44.414Z,2.20
2019-05-17T09:53:15.687Z,2.30
2019-05-17T09:55:46.879Z,3.03
2019-05-17T09:58:21.427Z,1.83
2019-05-17T10:00:51.236Z,2.40
2019-05-17T10:03:23.966Z,2.77
2019-05-17T10:05:55.489Z,2.20
2019-05-17T10:08:26.695Z,2.40
2019-05-17T10:11:08.095Z,2.57
2019-05-17T10:13:30.727Z,3.00
2019-05-17T10:16:01.938Z,3.20
2019-05-17T10:18:33.447Z,3.80
2019-05-17T10:21:04.640Z,3.43
2019-05-17T10:23:36.019Z,3.80
2019-05-17T10:26:07.311Z,4.17
2019-05-17T10:28:39.975Z,4.60
2019-05-17T10:31:12.211Z,4.83
2019-05-17T10:33:43.884Z,5.83
2019-05-17T10:36:15.230Z,4.27
2019-05-17T10:38:47.099Z,4.30
2019-05-17T10:41:19.867Z,4.23
2019-05-17T10:43:51.339Z,4.43
2019-05-17T10:46:22.634Z,4.33
2019-05-17T10:48:53.844Z,4.43
2019-05-17T10:51:25.101Z,5.17
2019-05-17T10:53:56.367Z,4.93
2019-05-17T10:56:27.620Z,5.00
2019-05-17T10:59:00.116Z,5.20
2019-05-17T11:01:31.600Z,4.87
2019-05-17T11:04:02.816Z,6.00
2019-05-17T11:06:34.195Z,6.30
2019-05-17T11:09:07.156Z,5.93
2019-05-17T11:11:38.539Z,6.10
2019-05-17T11:14:10.294Z,5.47
2019-05-17T11:16:41.965Z,6.57
2019-05-17T11:19:13.354Z,6.10
2019-05-17T11:21:44.685Z,5.90
2019-05-17T11:24:16.010Z,7.80
2019-05-17T11:26:47.253Z,5.97
2019-05-17T11:29:18.998Z,6.63
2019-05-17T11:31:50.257Z,6.20
2019-05-17T11:34:25.371Z,7.47
2019-05-17T11:36:54.626Z,7.07
2019-05-17T11:39:25.791Z,6.97
2019-05-17T11:41:57.427Z,6.90
2019-05-17T11:44:28.988Z,6.30
2019-05-17T11:47:00.335Z,6.37
2019-05-17T11:49:31.434Z,5.70
2019-05-17T11:52:02.703Z,6.67
2019-05-17T11:54:35.063Z,6.60
2019-05-17T11:57:06.403Z,6.63
2019-05-17T11:59:37.741Z,7.27
2019-05-17T12:02:09.041Z,7.10
2019-05-17T12:04:40.296Z,6.73
2019-05-17T12:07:11.956Z,7.83
2019-05-17T12:09:43.197Z,9.67
2019-05-17T12:12:14.567Z,6.97
2019-05-17T12:14:45.934Z,6.93
2019-05-17T12:17:17.172Z,8.13
2019-05-17T12:19:48.434Z,7.57
2019-05-17T12:22:19.989Z,8.33
2019-05-17T12:24:51.667Z,7.90
2019-05-17T12:27:22.881Z,7.93
2019-05-17T12:29:54.285Z,6.83
2019-05-17T12:32:25.902Z,7.40
2019-05-17T12:34:57.465Z,6.93
2019-05-17T12:37:28.751Z,6.53
2019-05-17T12:40:00.457Z,8.03
2019-05-17T12:42:31.727Z,7.53
2019-05-17T12:45:02.972Z,7.67
2019-05-17T12:47:34.402Z,7.63
2019-05-17T12:50:06.366Z,7.93
2019-05-17T12:52:37.648Z,7.37
2019-05-17T12:55:09.580Z,8.60
2019-05-17T12:57:40.844Z,7.63
2019-05-17T13:00:14.218Z,6.93
2019-05-17T13:02:45.491Z,7.23
2019-05-17T13:05:16.852Z,8.63
2019-05-17T13:07:48.570Z,7.43
2019-05-17T13:10:19.849Z,7.40
2019-05-17T13:12:51.164Z,6.87
2019-05-17T13:15:22.574Z,7.20
2019-05-17T13:17:55.099Z,6.43
2019-05-17T13:20:26.527Z,6.80
2019-05-17T13:22:58.017Z,6.83
2019-05-17T13:25:29.222Z,6.90
2019-05-17T13:28:00.517Z,7.50
2019-05-17T13:30:32.200Z,7.27
2019-05-17T13:33:03.544Z,7.93
2019-05-17T13:35:34.825Z,8.97
2019-05-17T13:38:06.518Z,7.33
2019-05-17T13:40:39.920Z,7.83
2019-05-17T13:43:11.263Z,6.47
2019-05-17T13:45:43.989Z,8.10
2019-05-17T13:48:15.492Z,6.53
2019-05-17T13:50:46.781Z,6.90
2019-05-17T13:53:18.037Z,6.57
2019-05-17T13:55:49.407Z,5.93
2019-05-17T13:58:21.121Z,7.07
2019-05-17T14:00:52.466Z,8.20
2019-05-17T14:03:23.703Z,6.70
2019-05-17T14:05:54.845Z,6.23
2019-05-17T14:08:26.708Z,7.00
2019-05-17T14:10:58.039Z,7.30
2019-05-17T14:13:29.237Z,8.80
2019-05-17T14:16:00.641Z,8.50
2019-05-17T14:18:31.939Z,6.07
2019-05-17T14:21:03.297Z,6.17
2019-05-17T14:23:34.912Z,6.03
2019-05-17T14:26:06.444Z,8.57
2019-05-17T14:28:38.079Z,6.03
2019-05-17T14:31:09.432Z,6.87
2019-05-17T14:33:40.925Z,6.87
2019-05-17T14:36:12.551Z,6.63
2019-05-17T14:38:44.162Z,7.60
2019-05-17T14:41:15.564Z,7.20
2019-05-17T14:43:47.255Z,6.53
2019-05-17T14:46:18.860Z,6.50
2019-05-17T14:48:49.971Z,6.70
2019-05-17T14:51:21.253Z,6.07
2019-05-17T14:53:52.611Z,5.83
2019-05-17T14:56:24.103Z,8.50
2019-05-17T14:58:55.460Z,6.60
2019-05-17T15:01:27.401Z,6.77
2019-05-17T15:03:58.667Z,6.17
2019-05-17T15:06:29.959Z,7.33
2019-05-17T15:09:01.253Z,6.73
2019-05-17T15:11:32.543Z,6.07
2019-05-17T15:14:03.871Z,6.27
2019-05-17T15:16:35.083Z,6.87
2019-05-17T15:19:06.759Z,6.63
2019-05-17T15:21:38.027Z,5.93
2019-05-17T15:24:09.414Z,8.63
2019-05-17T15:26:40.721Z,5.77
2019-05-17T15:29:12.284Z,6.50
2019-05-17T15:31:43.654Z,5.73
2019-05-17T15:34:14.843Z,5.90
2019-05-17T15:36:46.129Z,5.60
2019-05-17T15:39:17.486Z,6.03
2019-05-17T15:41:49.497Z,5.77
2019-05-17T15:44:21.125Z,5.80
2019-05-17T15:46:52.584Z,5.90
2019-05-17T15:49:23.783Z,5.93
2019-05-17T15:51:55.254Z,6.03
2019-05-17T15:54:26.528Z,7.10
2019-05-17T15:56:57.817Z,5.70
2019-05-17T15:59:29.215Z,5.80
2019-05-17T16:02:01.008Z,5.77
2019-05-17T16:04:32.245Z,5.57
2019-05-17T16:07:04.072Z,6.60
2019-05-17T16:09:35.411Z,6.43
2019-05-17T16:12:06.863Z,5.60
2019-05-17T16:14:38.136Z,6.23
2019-05-17T16:17:10.099Z,5.53
2019-05-17T16:19:41.802Z,7.17
2019-05-17T16:22:13.041Z,5.27
2019-05-17T16:24:44.203Z,6.20
2019-05-17T16:27:15.570Z,5.50
2019-05-17T16:29:47.206Z,6.43
2019-05-17T16:32:18.601Z,6.73
2019-05-17T16:34:50.018Z,5.70
2019-05-17T16:37:21.389Z,6.00
2019-05-17T16:39:52.752Z,5.80
2019-05-17T16:42:24.373Z,6.00
2019-05-17T16:44:55.699Z,7.80
2019-05-17T16:47:27.037Z,5.60
2019-05-17T16:49:58.429Z,5.73
2019-05-17T16:52:29.745Z,5.33
2019-05-17T16:55:01.093Z,6.03
2019-05-17T16:57:32.605Z,5.23
2019-05-17T17:00:04.338Z,5.63
2019-05-17T17:02:35.545Z,5.80
2019-05-17T17:05:07.245Z,5.43
2019-05-17T17:07:38.661Z,5.00
2019-05-17T17:10:10.030Z,5.57
2019-05-17T17:12:41.203Z,7.03
2019-05-17T17:15:13.051Z,5.50
2019-05-17T17:17:44.747Z,5.60
2019-05-17T17:20:16.636Z,5.70
2019-05-17T17:22:48.515Z,6.03
2019-05-17T17:25:19.919Z,5.47
2019-05-17T17:27:51.131Z,6.23
2019-05-17T17:30:22.569Z,5.80
2019-05-17T17:32:53.892Z,6.10
2019-05-17T17:35:25.347Z,4.63
2019-05-17T17:37:56.839Z,6.73
2019-05-17T17:40:29.039Z,5.93
2019-05-17T17:43:00.606Z,5.60
2019-05-17T17:45:31.988Z,5.67
2019-05-17T17:48:03.247Z,5.37
2019-05-17T17:50:35.048Z,5.70
2019-05-17T17:53:08.329Z,5.70
2019-05-17T17:55:39.580Z,5.80
2019-05-17T17:58:10.921Z,5.73
2019-05-17T18:00:42.663Z,5.33
2019-05-17T18:03:13.986Z,5.70
2019-05-17T18:05:45.584Z,5.80
2019-05-17T18:08:16.977Z,5.80
2019-05-17T18:10:48.604Z,6.63
2019-05-17T18:13:19.944Z,7.20
2019-05-17T18:15:51.187Z,6.50
2019-05-17T18:18:22.921Z,6.27
2019-05-17T18:20:54.589Z,5.40
2019-05-17T18:23:25.851Z,6.17
2019-05-17T18:25:57.136Z,6.07
2019-05-17T18:28:28.504Z,5.93
2019-05-17T18:30:59.868Z,6.33
2019-05-17T18:33:31.142Z,6.10
2019-05-17T18:36:02.504Z,10.97
2019-05-17T18:38:35.782Z,9.97
2019-05-17T18:41:07.224Z,7.40
2019-05-17T18:43:38.440Z,7.47
2019-05-17T18:46:09.931Z,6.47
2019-05-17T18:48:41.628Z,6.50
2019-05-17T18:51:13.065Z,6.23
2019-05-17T18:53:45.423Z,6.50
2019-05-17T18:56:16.773Z,6.90
2019-05-17T18:58:48.048Z,6.97
2019-05-17T19:01:19.378Z,7.90
2019-05-17T19:03:50.710Z,7.03
2019-05-17T19:06:22.035Z,7.10
2019-05-17T19:08:53.317Z,9.33
2019-05-17T19:11:24.646Z,6.67
2019-05-17T19:13:55.925Z,6.90
2019-05-17T19:16:27.061Z,6.60
2019-05-17T19:18:58.142Z,6.47
2019-05-17T19:21:29.877Z,5.73
2019-05-17T19:24:01.083Z,6.63
2019-05-17T19:26:32.610Z,6.80
2019-05-17T19:29:04.288Z,6.73
2019-05-17T19:31:35.469Z,7.13
2019-05-17T19:34:06.962Z,6.67
2019-05-17T19:36:41.365Z,10.97
2019-05-17T19:39:11.293Z,6.90
2019-05-17T19:41:42.562Z,7.30
2019-05-17T19:44:13.795Z,6.80
2019-05-17T19:46:45.280Z,6.67
2019-05-17T19:49:17.155Z,6.40
2019-05-17T19:51:48.326Z,5.70
2019-05-17T19:54:19.759Z,5.67
2019-05-17T19:56:50.989Z,5.40
2019-05-17T19:59:22.189Z,5.93
2019-05-17T20:01:53.386Z,6.60
2019-05-17T20:04:25.095Z,6.00
2019-05-17T20:06:56.273Z,5.63
2019-05-17T20:09:27.442Z,6.27
2019-05-17T20:11:58.796Z,7.13
2019-05-17T20:14:29.997Z,7.10
2019-05-17T20:17:01.343Z,7.90
2019-05-17T20:19:33.226Z,8.47
2019-05-17T20:22:04.526Z,7.67
2019-05-17T20:24:35.652Z,13.03
2019-05-17T20:27:07.017Z,9.30
2019-05-17T20:29:38.215Z,9.20
2019-05-17T20:32:09.539Z,7.70
2019-05-17T20:34:40.777Z,6.47
2019-05-17T20:37:12.145Z,6.43
2019-05-17T20:39:43.427Z,6.77
2019-05-17T20:42:15.113Z,6.80
2019-05-17T20:44:46.260Z,7.63
2019-05-17T20:47:17.589Z,7.37
2019-05-17T20:49:49.137Z,7.20
2019-05-17T20:52:20.669Z,7.70
2019-05-17T20:54:51.799Z,9.53
2019-05-17T20:57:23.627Z,9.17
2019-05-17T20:59:54.919Z,20.13
2019-05-17T21:02:26.275Z,30.07
2019-05-17T21:04:57.420Z,18.93
2019-05-17T21:07:28.682Z,13.13
2019-05-17T21:09:59.977Z,12.03
2019-05-17T21:12:31.321Z,8.63
2019-05-17T21:15:02.796Z,8.87
2019-05-17T21:17:34.365Z,7.47
2019-05-17T21:20:06.068Z,7.40
2019-05-17T21:22:37.289Z,7.13
2019-05-17T21:25:09.157Z,7.23
2019-05-17T21:27:40.385Z,10.30
2019-05-17T21:30:12.218Z,9.90
2019-05-17T21:32:43.560Z,10.17
2019-05-17T21:35:15.637Z,8.70
2019-05-17T21:37:46.887Z,8.10
2019-05-17T21:40:18.767Z,9.97
2019-05-17T21:42:49.974Z,11.70
2019-05-17T21:45:21.174Z,14.70
2019-05-17T21:47:53.099Z,10.07
2019-05-17T21:50:24.297Z,9.60
2019-05-17T21:52:55.527Z,9.03
2019-05-17T21:55:26.806Z,10.80
2019-05-17T21:57:57.983Z,8.70
2019-05-17T22:01:24.522Z,9.67
2019-05-17T22:03:55.685Z,9.03
2019-05-17T22:06:26.956Z,7.93
2019-05-17T22:08:58.214Z,9.67
2019-05-17T22:11:29.566Z,9.07
2019-05-17T22:14:01.293Z,8.07
2019-05-17T22:16:32.483Z,8.37
2019-05-17T22:19:03.736Z,9.00
2019-05-17T22:21:34.998Z,8.13
2019-05-17T22:24:06.507Z,7.93
2019-05-17T22:26:37.730Z,7.87
2019-05-17T22:29:08.969Z,9.23
2019-05-17T22:31:40.792Z,8.87
2019-05-17T22:34:12.084Z,8.93
2019-05-17T22:36:43.537Z,10.37
2019-05-17T22:39:15.114Z,9.63
2019-05-17T22:41:46.486Z,10.73
2019-05-17T22:44:17.772Z,10.73
2019-05-17T22:46:49.202Z,11.43
2019-05-17T22:49:20.627Z,10.80
2019-05-17T22:51:51.870Z,10.13
2019-05-17T22:54:23.139Z,10.60
2019-05-17T22:56:54.789Z,11.07
2019-05-17T22:59:26.003Z,11.13
2019-05-17T23:01:57.241Z,11.53
2019-05-17T23:04:28.445Z,12.60
2019-05-17T23:06:59.766Z,12.47
2019-05-17T23:09:31.288Z,12.73
2019-05-17T23:12:02.491Z,12.17
2019-05-17T23:14:34.175Z,11.53
2019-05-17T23:17:05.481Z,13.63
2019-05-17T23:19:36.759Z,13.40
2019-05-17T23:22:08.502Z,13.80
2019-05-17T23:24:39.707Z,11.80
2019-05-17T23:27:10.851Z,12.23
2019-05-17T23:29:42.361Z,11.90
2019-05-17T23:32:13.971Z,11.10
2019-05-17T23:34:45.147Z,14.37
2019-05-17T23:37:16.767Z,12.17
2019-05-17T23:39:48.388Z,12.03
2019-05-17T23:42:19.571Z,9.43
2019-05-17T23:44:50.778Z,13.37
2019-05-17T23:47:22.199Z,10.77
2019-05-17T23:49:53.294Z,11.10
2019-05-17T23:52:24.918Z,11.27
2019-05-17T23:54:56.314Z,9.40
2019-05-17T23:57:27.487Z,9.73
2019-05-17T23:59:58.576Z,9.97
